Terminal Aerodrome Forecast
Issued by NWS

Home | Current Version | Previous Version | Text Only | Print | Product List | Glossary Off
Versions: 1 2 3 4 5 6 7 8 9 10 11 12 13 14 15 16

325
FTUS43 KTOP 222338
TAFMHK
TAF
KMHK 222338Z 2300/2324 19004KT P6SM BKN120
     FM230700 22003KT P6SM VCSH BKN050
     FM231000 34010KT P6SM VCSH BKN040
     FM231200 35012KT P6SM BKN070=

USA.gov is the U.S. government's official web portal to all federal, state and local government web resources and services.